Farmington, NM

3:44 PM MST on December 27, 2014 (GMT -0700)
Cortez Municipal | Change Station
CLOSE
Current Station
Airport
Location: Cortez,
Elevation: 5915 ft
Nearby Weather Stations

Elev 5915 ft 37.31 °N, 108.63 °W | Updated 51 minutes ago

Clear
Clear
31 °F
Feels Like 22 °F
N
12
Wind Variable Wind from West

Today
High -- | Low -- °F
--% Chance of Precip.
Yesterday
High -- | Low -- °F
Precip. -- in
7:24 AM 5:03 PM
Waxing Crescent, 41% visible
Pressure 30.32 in
Visibility 10.0 miles
Clouds Clear
Windchill 22 °F
Dew Point 7 °F
Humidity 37%
Rainfall 0.00 in
Snow Depth Not available.
UV 2 out of 12
Pollen .40 out of 12
Air Quality Not available.
Flu Activity Not available.
METAR KCEZ 272153Z AUTO 27010KT 10SM CLR M01/M14 A3020 RMK AO2 SLP266 T10061139

More Conditions Fewer Conditions

Pressure 30.32 in
Visibility 10.0 miles
Clouds Clear
Windchill 22 °F
Dew Point 7 °F
Humidity 37%
Rainfall 0.00 in
Snow Depth Not available.
UV 2 out of 12
Pollen .40 out of 12
Air Quality Not available.
Flu Activity Not available.
METAR KCEZ 272153Z AUTO 27010KT 10SM CLR M01/M14 A3020 RMK AO2 SLP266 T10061139

More Conditions Fewer Conditions

10-Day Weather Forecast

Almanac

Astronomy

Dec. 27, 2014 Rise Set
Actual Time
Civil Twilight
Nautical Twilight
Astronomical Twilight
Moon
Length of Visible Light
Length of Day
Tomorrow will be .
, % of the Moon is Illuminated

Today's Extremes

State Highs State Lows

Community

WunderPhotos

Upload Photos

1,781,098 photos uploaded!

WunderBlogs® & News

Nearby

Air Quality

  Air Quality AQ Index Pollutant
Not available.

Snow Depth

Station Depth Elevation

Earthquake Activity

City Distance Mag. Time & Date
Minimum magnitude displayed is 2.5.

Coastal Water Temperatures

Place Temperature

Nearby Weather Stations